首页
METAR-TAF:

METAR-TAF

机场 :

馬斯卡廷, 艾奥瓦州, 美国

纬度: 41-22N, 经度: 091-09W, 海拔: 167米

当前天气观测

该预报发布于26分钟前的00:35 UTC
风速6节,风向
温度 0°C
湿度 64%
气压 1018 hPa
能見度: 16.1公里
阴天层高于4100英尺

METAR: KMUT 140035Z AUTO 19006KT 10SM OVC041 M00/M06 A3006 RMK AO2

时间: 19:01 (01:01 UTC)


TAF: 丢失

超过4000个机场的气象观测和天气预报(METAR&TAF报告)。

可查询的气象台以黄色和红色小点在地图上表示。

将鼠标移到小点上方,可查看气象台名称。

然后点击查看天气观测和预报。

如需切换地图:点击带黑十字的绿色按钮放大地图;点击带横线的绿色按钮缩小地图;或者点击绿色箭头查看邻近地区的地图。


METAR-TAF: